sensor_id;sensor_type;location;lat;lon;timestamp;temperature;humidity
26583;DHT22;14230;45.382;10.998;2022-11-06T00:02:15;8.40;99.90
26583;DHT22;14230;45.382;10.998;2022-11-06T00:04:47;8.30;99.90
26583;DHT22;14230;45.382;10.998;2022-11-06T00:07:14;8.30;99.90
26583;DHT22;14230;45.382;10.998;2022-11-06T00:09:42;8.20;99.90
26583;DHT22;14230;45.382;10.998;2022-11-06T00:12:09;8.10;99.90
26583;DHT22;14230;45.382;10.998;2022-11-06T00:14:36;8.00;99.90
26583;DHT22;14230;45.382;10.998;2022-11-06T00:17:05;8.00;99.90
26583;DHT22;14230;45.382;10.998;2022-11-06T00:19:32;7.90;99.90
26583;DHT22;14230;45.382;10.998;2022-11-06T00:21:59;7.80;99.90
26583;DHT22;14230;45.382;10.998;2022-11-06T00:24:27;7.80;99.90
26583;DHT22;14230;45.382;10.998;2022-11-06T00:26:54;7.70;99.90
26583;DHT22;14230;45.382;10.998;2022-11-06T00:29:22;7.60;99.90
26583;DHT22;14230;45.382;10.998;2022-11-06T00:31:49;7.40;99.90
26583;DHT22;14230;45.382;10.998;2022-11-06T00:34:17;7.40;99.90
26583;DHT22;14230;45.382;10.998;2022-11-06T00:36:44;7.50;99.90
26583;DHT22;14230;45.382;10.998;2022-11-06T00:39:12;7.60;99.90
26583;DHT22;14230;45.382;10.998;2022-11-06T00:41:39;7.60;99.90
26583;DHT22;14230;45.382;10.998;2022-11-06T00:44:08;7.60;99.90
26583;DHT22;14230;45.382;10.998;2022-11-06T00:46:36;7.70;99.90
26583;DHT22;14230;45.382;10.998;2022-11-06T00:49:03;7.90;99.90
26583;DHT22;14230;45.382;10.998;2022-11-06T00:51:34;7.90;99.90
26583;DHT22;14230;45.382;10.998;2022-11-06T00:54:04;7.90;99.90
26583;DHT22;14230;45.382;10.998;2022-11-06T00:56:32;7.90;99.90
26583;DHT22;14230;45.382;10.998;2022-11-06T00:59:01;7.90;99.90
26583;DHT22;14230;45.382;10.998;2022-11-06T01:01:34;8.00;99.90
26583;DHT22;14230;45.382;10.998;2022-11-06T01:04:14;8.10;99.90
26583;DHT22;14230;45.382;10.998;2022-11-06T01:06:45;8.00;99.90
26583;DHT22;14230;45.382;10.998;2022-11-06T01:09:20;8.00;99.90
26583;DHT22;14230;45.382;10.998;2022-11-06T01:11:54;8.00;99.90
26583;DHT22;14230;45.382;10.998;2022-11-06T01:14:41;8.00;99.90
26583;DHT22;14230;45.382;10.998;2022-11-06T01:17:09;8.00;99.90
26583;DHT22;14230;45.382;10.998;2022-11-06T01:19:36;8.10;99.90
26583;DHT22;14230;45.382;10.998;2022-11-06T01:22:04;8.20;99.90
26583;DHT22;14230;45.382;10.998;2022-11-06T01:24:31;8.20;99.90
26583;DHT22;14230;45.382;10.998;2022-11-06T01:26:59;8.30;99.90
26583;DHT22;14230;45.382;10.998;2022-11-06T01:29:47;8.40;99.90
26583;DHT22;14230;45.382;10.998;2022-11-06T01:32:14;8.30;99.90
26583;DHT22;14230;45.382;10.998;2022-11-06T01:34:41;8.30;99.90
26583;DHT22;14230;45.382;10.998;2022-11-06T01:37:09;8.30;99.90
26583;DHT22;14230;45.382;10.998;2022-11-06T01:39:41;8.20;99.90
26583;DHT22;14230;45.382;10.998;2022-11-06T01:42:10;8.20;99.90
26583;DHT22;14230;45.382;10.998;2022-11-06T01:47:21;8.40;99.90
26583;DHT22;14230;45.382;10.998;2022-11-06T01:49:52;8.40;99.90
26583;DHT22;14230;45.382;10.998;2022-11-06T01:52:22;8.30;99.90
26583;DHT22;14230;45.382;10.998;2022-11-06T01:54:53;8.20;99.90
26583;DHT22;14230;45.382;10.998;2022-11-06T01:57:23;8.10;99.90
26583;DHT22;14230;45.382;10.998;2022-11-06T01:59:51;8.00;99.90
26583;DHT22;14230;45.382;10.998;2022-11-06T02:02:20;8.10;99.90
26583;DHT22;14230;45.382;10.998;2022-11-06T02:04:49;8.10;99.90
26583;DHT22;14230;45.382;10.998;2022-11-06T02:07:17;8.10;99.90
26583;DHT22;14230;45.382;10.998;2022-11-06T02:09:46;8.00;99.90
26583;DHT22;14230;45.382;10.998;2022-11-06T02:15:00;8.00;99.90
26583;DHT22;14230;45.382;10.998;2022-11-06T02:20:42;8.20;99.90
26583;DHT22;14230;45.382;10.998;2022-11-06T02:24:21;8.40;99.90
26583;DHT22;14230;45.382;10.998;2022-11-06T02:29:19;8.40;99.90
26583;DHT22;14230;45.382;10.998;2022-11-06T02:31:54;8.30;99.90
26583;DHT22;14230;45.382;10.998;2022-11-06T02:34:23;8.30;99.90
26583;DHT22;14230;45.382;10.998;2022-11-06T02:37:00;8.30;99.90
26583;DHT22;14230;45.382;10.998;2022-11-06T02:39:28;8.30;99.90
26583;DHT22;14230;45.382;10.998;2022-11-06T02:41:58;8.30;99.90
26583;DHT22;14230;45.382;10.998;2022-11-06T02:44:28;8.40;99.90
26583;DHT22;14230;45.382;10.998;2022-11-06T02:47:04;8.40;99.90
26583;DHT22;14230;45.382;10.998;2022-11-06T02:52:25;8.40;99.90
26583;DHT22;14230;45.382;10.998;2022-11-06T02:55:07;8.50;99.90
26583;DHT22;14230;45.382;10.998;2022-11-06T02:57:38;8.50;99.90
26583;DHT22;14230;45.382;10.998;2022-11-06T03:00:12;8.50;99.90
26583;DHT22;14230;45.382;10.998;2022-11-06T03:05:22;8.50;99.90
26583;DHT22;14230;45.382;10.998;2022-11-06T03:19:32;8.60;99.90
26583;DHT22;14230;45.382;10.998;2022-11-06T03:27:31;8.40;99.90
26583;DHT22;14230;45.382;10.998;2022-11-06T03:30:05;8.50;99.90
26583;DHT22;14230;45.382;10.998;2022-11-06T03:35:49;8.30;99.90
26583;DHT22;14230;45.382;10.998;2022-11-06T03:38:30;8.20;99.90
26583;DHT22;14230;45.382;10.998;2022-11-06T03:41:20;8.30;99.90
26583;DHT22;14230;45.382;10.998;2022-11-06T03:43:49;8.30;99.90
26583;DHT22;14230;45.382;10.998;2022-11-06T03:46:20;8.20;99.90
26583;DHT22;14230;45.382;10.998;2022-11-06T03:49:03;8.10;99.90
26583;DHT22;14230;45.382;10.998;2022-11-06T03:51:45;7.90;99.90
26583;DHT22;14230;45.382;10.998;2022-11-06T03:54:20;7.90;99.90
26583;DHT22;14230;45.382;10.998;2022-11-06T03:56:55;7.80;99.90
26583;DHT22;14230;45.382;10.998;2022-11-06T03:59:27;7.70;99.90
26583;DHT22;14230;45.382;10.998;2022-11-06T04:01:56;7.70;99.90
26583;DHT22;14230;45.382;10.998;2022-11-06T04:04:35;7.80;99.90
26583;DHT22;14230;45.382;10.998;2022-11-06T04:07:08;7.80;99.90
26583;DHT22;14230;45.382;10.998;2022-11-06T04:09:38;7.80;99.90
26583;DHT22;14230;45.382;10.998;2022-11-06T04:12:26;7.90;99.90
26583;DHT22;14230;45.382;10.998;2022-11-06T04:15:35;7.80;99.90
26583;DHT22;14230;45.382;10.998;2022-11-06T04:18:11;7.80;99.90
26583;DHT22;14230;45.382;10.998;2022-11-06T04:20:53;7.70;99.90
26583;DHT22;14230;45.382;10.998;2022-11-06T04:27:17;7.20;99.90
26583;DHT22;14230;45.382;10.998;2022-11-06T04:30:02;7.20;99.90
26583;DHT22;14230;45.382;10.998;2022-11-06T04:36:10;7.10;99.90
26583;DHT22;14230;45.382;10.998;2022-11-06T04:43:57;7.10;99.90
26583;DHT22;14230;45.382;10.998;2022-11-06T04:46:36;7.10;99.90
26583;DHT22;14230;45.382;10.998;2022-11-06T04:49:05;7.10;99.90
26583;DHT22;14230;45.382;10.998;2022-11-06T04:51:36;7.20;99.90
26583;DHT22;14230;45.382;10.998;2022-11-06T04:54:07;7.20;99.90
26583;DHT22;14230;45.382;10.998;2022-11-06T04:56:36;7.30;99.90
26583;DHT22;14230;45.382;10.998;2022-11-06T04:59:14;7.30;99.90
26583;DHT22;14230;45.382;10.998;2022-11-06T05:01:42;7.40;99.90
26583;DHT22;14230;45.382;10.998;2022-11-06T05:04:11;7.30;99.90
26583;DHT22;14230;45.382;10.998;2022-11-06T05:06:38;7.20;99.90
26583;DHT22;14230;45.382;10.998;2022-11-06T05:09:05;7.20;99.90
26583;DHT22;14230;45.382;10.998;2022-11-06T05:11:33;7.10;99.90
26583;DHT22;14230;45.382;10.998;2022-11-06T05:14:00;7.00;99.90
26583;DHT22;14230;45.382;10.998;2022-11-06T05:16:28;6.90;99.90
26583;DHT22;14230;45.382;10.998;2022-11-06T05:18:55;6.80;99.90
26583;DHT22;14230;45.382;10.998;2022-11-06T05:21:22;6.70;99.90
26583;DHT22;14230;45.382;10.998;2022-11-06T05:24:08;6.60;99.90
26583;DHT22;14230;45.382;10.998;2022-11-06T05:26:36;6.70;99.90
26583;DHT22;14230;45.382;10.998;2022-11-06T05:29:03;6.80;99.90
26583;DHT22;14230;45.382;10.998;2022-11-06T05:31:31;6.80;99.90
26583;DHT22;14230;45.382;10.998;2022-11-06T05:33:58;6.80;99.90
26583;DHT22;14230;45.382;10.998;2022-11-06T05:36:26;6.80;99.90
26583;DHT22;14230;45.382;10.998;2022-11-06T05:38:53;6.80;99.90
26583;DHT22;14230;45.382;10.998;2022-11-06T05:41:20;6.80;99.90
26583;DHT22;14230;45.382;10.998;2022-11-06T05:43:48;6.90;99.90
26583;DHT22;14230;45.382;10.998;2022-11-06T05:46:15;6.90;99.90
26583;DHT22;14230;45.382;10.998;2022-11-06T05:49:03;6.90;99.90
26583;DHT22;14230;45.382;10.998;2022-11-06T05:51:30;6.90;99.90
26583;DHT22;14230;45.382;10.998;2022-11-06T05:54:01;7.00;99.90
26583;DHT22;14230;45.382;10.998;2022-11-06T05:56:29;6.90;99.90
26583;DHT22;14230;45.382;10.998;2022-11-06T05:58:56;6.70;99.90
26583;DHT22;14230;45.382;10.998;2022-11-06T06:01:24;6.60;99.90
26583;DHT22;14230;45.382;10.998;2022-11-06T06:03:51;6.40;99.90
26583;DHT22;14230;45.382;10.998;2022-11-06T06:06:19;6.40;99.90
26583;DHT22;14230;45.382;10.998;2022-11-06T06:08:47;6.20;99.90
26583;DHT22;14230;45.382;10.998;2022-11-06T06:11:14;6.20;99.90
26583;DHT22;14230;45.382;10.998;2022-11-06T06:13:42;6.10;99.90
26583;DHT22;14230;45.382;10.998;2022-11-06T06:16:09;6.00;99.90
26583;DHT22;14230;45.382;10.998;2022-11-06T06:18:36;6.10;99.90
26583;DHT22;14230;45.382;10.998;2022-11-06T06:21:04;6.30;99.90
26583;DHT22;14230;45.382;10.998;2022-11-06T06:23:31;6.40;99.90
26583;DHT22;14230;45.382;10.998;2022-11-06T06:25:59;6.40;99.90
26583;DHT22;14230;45.382;10.998;2022-11-06T06:28:26;6.50;99.90
26583;DHT22;14230;45.382;10.998;2022-11-06T06:30:53;6.50;99.90
26583;DHT22;14230;45.382;10.998;2022-11-06T06:33:27;6.50;99.90
26583;DHT22;14230;45.382;10.998;2022-11-06T06:35:55;6.60;99.90
26583;DHT22;14230;45.382;10.998;2022-11-06T06:38:22;6.70;99.90
26583;DHT22;14230;45.382;10.998;2022-11-06T06:40:50;6.80;99.90
26583;DHT22;14230;45.382;10.998;2022-11-06T06:43:17;7.00;99.90
26583;DHT22;14230;45.382;10.998;2022-11-06T06:45:44;7.10;99.90
26583;DHT22;14230;45.382;10.998;2022-11-06T06:48:12;7.30;99.90
26583;DHT22;14230;45.382;10.998;2022-11-06T06:50:40;7.50;99.90
26583;DHT22;14230;45.382;10.998;2022-11-06T06:53:07;8.00;99.90
26583;DHT22;14230;45.382;10.998;2022-11-06T06:55:35;9.20;99.90
26583;DHT22;14230;45.382;10.998;2022-11-06T06:58:03;10.60;99.90
26583;DHT22;14230;45.382;10.998;2022-11-06T07:00:30;12.30;99.90
26583;DHT22;14230;45.382;10.998;2022-11-06T07:02:57;13.30;99.90
26583;DHT22;14230;45.382;10.998;2022-11-06T07:05:25;13.90;99.90
26583;DHT22;14230;45.382;10.998;2022-11-06T07:07:52;14.60;99.90
26583;DHT22;14230;45.382;10.998;2022-11-06T07:10:20;15.30;99.90
26583;DHT22;14230;45.382;10.998;2022-11-06T07:12:47;15.50;99.90
26583;DHT22;14230;45.382;10.998;2022-11-06T07:15:14;16.00;99.90
26583;DHT22;14230;45.382;10.998;2022-11-06T07:17:42;16.60;99.90
26583;DHT22;14230;45.382;10.998;2022-11-06T07:20:10;17.10;99.90
26583;DHT22;14230;45.382;10.998;2022-11-06T07:22:37;17.50;99.90
26583;DHT22;14230;45.382;10.998;2022-11-06T07:25:05;18.20;99.90
26583;DHT22;14230;45.382;10.998;2022-11-06T07:27:33;18.60;99.90
26583;DHT22;14230;45.382;10.998;2022-11-06T07:30:01;19.00;99.90
26583;DHT22;14230;45.382;10.998;2022-11-06T07:32:28;19.20;99.90
26583;DHT22;14230;45.382;10.998;2022-11-06T07:34:56;19.20;99.90
26583;DHT22;14230;45.382;10.998;2022-11-06T07:37:23;19.50;99.90
26583;DHT22;14230;45.382;10.998;2022-11-06T07:39:51;19.60;99.90
26583;DHT22;14230;45.382;10.998;2022-11-06T07:42:18;19.70;99.90
26583;DHT22;14230;45.382;10.998;2022-11-06T07:44:57;20.10;99.90
26583;DHT22;14230;45.382;10.998;2022-11-06T07:47:24;20.80;99.90
26583;DHT22;14230;45.382;10.998;2022-11-06T07:49:53;21.40;99.90
26583;DHT22;14230;45.382;10.998;2022-11-06T07:52:22;22.30;99.90
26583;DHT22;14230;45.382;10.998;2022-11-06T07:54:49;22.50;99.20
26583;DHT22;14230;45.382;10.998;2022-11-06T07:57:17;23.30;97.20
26583;DHT22;14230;45.382;10.998;2022-11-06T07:59:44;23.50;95.40
26583;DHT22;14230;45.382;10.998;2022-11-06T08:02:12;24.10;94.00
26583;DHT22;14230;45.382;10.998;2022-11-06T08:04:40;24.70;92.90
26583;DHT22;14230;45.382;10.998;2022-11-06T08:07:07;24.80;92.10
26583;DHT22;14230;45.382;10.998;2022-11-06T08:09:35;24.90;91.90
26583;DHT22;14230;45.382;10.998;2022-11-06T08:12:02;25.40;91.10
26583;DHT22;14230;45.382;10.998;2022-11-06T08:14:30;25.40;90.70
26583;DHT22;14230;45.382;10.998;2022-11-06T08:16:57;25.70;89.50
26583;DHT22;14230;45.382;10.998;2022-11-06T08:19:25;25.60;89.70
26583;DHT22;14230;45.382;10.998;2022-11-06T08:21:52;24.50;89.80
26583;DHT22;14230;45.382;10.998;2022-11-06T08:24:19;24.70;89.50
26583;DHT22;14230;45.382;10.998;2022-11-06T08:26:48;24.80;89.40
26583;DHT22;14230;45.382;10.998;2022-11-06T08:29:16;24.80;89.10
26583;DHT22;14230;45.382;10.998;2022-11-06T08:31:43;25.10;87.50
26583;DHT22;14230;45.382;10.998;2022-11-06T08:34:11;24.10;88.40
26583;DHT22;14230;45.382;10.998;2022-11-06T08:36:41;24.10;88.90
26583;DHT22;14230;45.382;10.998;2022-11-06T08:39:15;23.90;89.50
26583;DHT22;14230;45.382;10.998;2022-11-06T08:41:43;24.70;89.50
26583;DHT22;14230;45.382;10.998;2022-11-06T08:44:11;24.80;88.00
26583;DHT22;14230;45.382;10.998;2022-11-06T08:46:38;25.10;86.10
26583;DHT22;14230;45.382;10.998;2022-11-06T08:49:06;25.30;85.90
26583;DHT22;14230;45.382;10.998;2022-11-06T08:51:33;25.70;83.80
26583;DHT22;14230;45.382;10.998;2022-11-06T08:54:01;25.90;83.50
26583;DHT22;14230;45.382;10.998;2022-11-06T08:56:28;25.50;82.60
26583;DHT22;14230;45.382;10.998;2022-11-06T08:58:55;25.90;82.90
26583;DHT22;14230;45.382;10.998;2022-11-06T09:01:23;26.30;81.60
26583;DHT22;14230;45.382;10.998;2022-11-06T09:03:52;26.40;79.80
26583;DHT22;14230;45.382;10.998;2022-11-06T09:06:19;26.70;78.00
26583;DHT22;14230;45.382;10.998;2022-11-06T09:08:47;27.10;76.20
26583;DHT22;14230;45.382;10.998;2022-11-06T09:11:14;27.50;74.80
26583;DHT22;14230;45.382;10.998;2022-11-06T09:13:42;27.60;72.10
26583;DHT22;14230;45.382;10.998;2022-11-06T09:16:09;27.00;71.20
26583;DHT22;14230;45.382;10.998;2022-11-06T09:18:42;26.70;69.30
26583;DHT22;14230;45.382;10.998;2022-11-06T09:21:10;26.90;69.70
26583;DHT22;14230;45.382;10.998;2022-11-06T09:23:37;27.10;70.90
26583;DHT22;14230;45.382;10.998;2022-11-06T09:26:04;27.30;69.80
26583;DHT22;14230;45.382;10.998;2022-11-06T09:28:32;27.10;70.30
26583;DHT22;14230;45.382;10.998;2022-11-06T09:31:00;27.70;69.10
26583;DHT22;14230;45.382;10.998;2022-11-06T09:33:28;27.50;67.90
26583;DHT22;14230;45.382;10.998;2022-11-06T09:35:55;27.10;68.40
26583;DHT22;14230;45.382;10.998;2022-11-06T09:38:23;26.60;68.30
26583;DHT22;14230;45.382;10.998;2022-11-06T09:40:53;26.10;68.10
26583;DHT22;14230;45.382;10.998;2022-11-06T09:46:44;27.00;66.30
26583;DHT22;14230;45.382;10.998;2022-11-06T09:49:22;27.40;64.80
26583;DHT22;14230;45.382;10.998;2022-11-06T09:54:49;27.40;62.10
26583;DHT22;14230;45.382;10.998;2022-11-06T10:00:09;27.60;63.20
26583;DHT22;14230;45.382;10.998;2022-11-06T10:05:36;27.30;62.30
26583;DHT22;14230;45.382;10.998;2022-11-06T10:08:22;26.90;63.90
26583;DHT22;14230;45.382;10.998;2022-11-06T10:11:06;26.20;65.90
26583;DHT22;14230;45.382;10.998;2022-11-06T10:19:24;22.70;72.70
26583;DHT22;14230;45.382;10.998;2022-11-06T10:22:13;21.80;77.70
26583;DHT22;14230;45.382;10.998;2022-11-06T10:25:02;21.20;78.40
26583;DHT22;14230;45.382;10.998;2022-11-06T10:27:41;20.40;81.30
26583;DHT22;14230;45.382;10.998;2022-11-06T10:30:17;20.00;84.20
26583;DHT22;14230;45.382;10.998;2022-11-06T10:36:38;19.40;89.00
26583;DHT22;14230;45.382;10.998;2022-11-06T10:38:45;19.10;87.40
26583;DHT22;14230;45.382;10.998;2022-11-06T10:41:19;18.90;88.90
26583;DHT22;14230;45.382;10.998;2022-11-06T10:43:56;18.90;90.60
26583;DHT22;14230;45.382;10.998;2022-11-06T10:46:30;18.70;91.80
26583;DHT22;14230;45.382;10.998;2022-11-06T10:59:57;17.70;94.40
26583;DHT22;14230;45.382;10.998;2022-11-06T11:02:34;17.70;95.80
26583;DHT22;14230;45.382;10.998;2022-11-06T11:05:18;17.60;96.30
26583;DHT22;14230;45.382;10.998;2022-11-06T11:07:48;17.50;96.80
26583;DHT22;14230;45.382;10.998;2022-11-06T11:12:52;17.60;94.80
26583;DHT22;14230;45.382;10.998;2022-11-06T11:15:21;17.70;95.40
26583;DHT22;14230;45.382;10.998;2022-11-06T11:20:40;17.60;95.00
26583;DHT22;14230;45.382;10.998;2022-11-06T11:23:21;17.70;95.10
26583;DHT22;14230;45.382;10.998;2022-11-06T11:26:16;17.70;94.90
26583;DHT22;14230;45.382;10.998;2022-11-06T11:28:53;17.80;95.70
26583;DHT22;14230;45.382;10.998;2022-11-06T11:31:31;17.80;95.20
26583;DHT22;14230;45.382;10.998;2022-11-06T11:34:02;17.80;94.60
26583;DHT22;14230;45.382;10.998;2022-11-06T11:39:18;17.90;93.30
26583;DHT22;14230;45.382;10.998;2022-11-06T11:41:46;17.70;93.00
26583;DHT22;14230;45.382;10.998;2022-11-06T11:44:16;17.60;93.10
26583;DHT22;14230;45.382;10.998;2022-11-06T11:46:52;17.60;93.60
26583;DHT22;14230;45.382;10.998;2022-11-06T11:49:29;17.60;93.30
26583;DHT22;14230;45.382;10.998;2022-11-06T11:52:02;17.60;92.60
26583;DHT22;14230;45.382;10.998;2022-11-06T11:54:34;17.60;91.60
26583;DHT22;14230;45.382;10.998;2022-11-06T11:57:16;17.60;92.00
26583;DHT22;14230;45.382;10.998;2022-11-06T11:59:52;17.50;92.10
26583;DHT22;14230;45.382;10.998;2022-11-06T12:02:24;17.50;91.60
26583;DHT22;14230;45.382;10.998;2022-11-06T12:05:01;17.50;90.10
26583;DHT22;14230;45.382;10.998;2022-11-06T12:07:33;17.50;90.70
26583;DHT22;14230;45.382;10.998;2022-11-06T12:10:20;17.60;91.00
26583;DHT22;14230;45.382;10.998;2022-11-06T12:12:52;17.70;91.10
26583;DHT22;14230;45.382;10.998;2022-11-06T12:15:30;17.60;90.70
26583;DHT22;14230;45.382;10.998;2022-11-06T12:18:04;17.60;90.50
26583;DHT22;14230;45.382;10.998;2022-11-06T12:23:04;17.60;90.30
26583;DHT22;14230;45.382;10.998;2022-11-06T12:25:40;17.60;89.10
26583;DHT22;14230;45.382;10.998;2022-11-06T12:28:13;17.60;90.90
26583;DHT22;14230;45.382;10.998;2022-11-06T12:30:56;17.70;91.60
26583;DHT22;14230;45.382;10.998;2022-11-06T12:33:27;17.70;91.10
26583;DHT22;14230;45.382;10.998;2022-11-06T12:36:18;17.70;91.10
26583;DHT22;14230;45.382;10.998;2022-11-06T12:39:03;17.70;90.80
26583;DHT22;14230;45.382;10.998;2022-11-06T12:41:38;17.80;90.60
26583;DHT22;14230;45.382;10.998;2022-11-06T12:44:13;17.80;91.40
26583;DHT22;14230;45.382;10.998;2022-11-06T12:49:41;18.10;91.40
26583;DHT22;14230;45.382;10.998;2022-11-06T12:55:21;18.10;90.80
26583;DHT22;14230;45.382;10.998;2022-11-06T12:58:29;18.00;90.90
26583;DHT22;14230;45.382;10.998;2022-11-06T13:03:51;17.90;91.20
26583;DHT22;14230;45.382;10.998;2022-11-06T13:15:30;17.90;91.30
26583;DHT22;14230;45.382;10.998;2022-11-06T13:18:19;17.90;91.20
26583;DHT22;14230;45.382;10.998;2022-11-06T13:23:50;18.00;91.20
26583;DHT22;14230;45.382;10.998;2022-11-06T13:26:42;18.00;91.20
26583;DHT22;14230;45.382;10.998;2022-11-06T13:29:13;17.90;91.10
26583;DHT22;14230;45.382;10.998;2022-11-06T13:31:50;17.90;91.20
26583;DHT22;14230;45.382;10.998;2022-11-06T13:34:25;17.90;90.80
26583;DHT22;14230;45.382;10.998;2022-11-06T13:36:54;17.90;91.10
26583;DHT22;14230;45.382;10.998;2022-11-06T13:39:36;17.90;93.00
26583;DHT22;14230;45.382;10.998;2022-11-06T13:42:25;17.90;93.90
26583;DHT22;14230;45.382;10.998;2022-11-06T13:44:55;17.80;94.70
26583;DHT22;14230;45.382;10.998;2022-11-06T13:47:37;17.70;95.00
26583;DHT22;14230;45.382;10.998;2022-11-06T13:50:15;17.50;95.60
26583;DHT22;14230;45.382;10.998;2022-11-06T13:53:09;17.30;95.70
26583;DHT22;14230;45.382;10.998;2022-11-06T14:07:20;16.60;99.60
26583;DHT22;14230;45.382;10.998;2022-11-06T14:09:49;16.50;99.90
26583;DHT22;14230;45.382;10.998;2022-11-06T14:12:20;16.50;99.90
26583;DHT22;14230;45.382;10.998;2022-11-06T14:14:48;16.40;99.90
26583;DHT22;14230;45.382;10.998;2022-11-06T14:17:23;16.30;99.90
26583;DHT22;14230;45.382;10.998;2022-11-06T14:22:37;16.20;99.90
26583;DHT22;14230;45.382;10.998;2022-11-06T14:36:12;16.00;99.90
26583;DHT22;14230;45.382;10.998;2022-11-06T14:38:39;16.00;99.90
26583;DHT22;14230;45.382;10.998;2022-11-06T14:44:22;15.90;99.90
26583;DHT22;14230;45.382;10.998;2022-11-06T14:46:55;15.90;99.90
26583;DHT22;14230;45.382;10.998;2022-11-06T14:49:42;15.80;99.90
26583;DHT22;14230;45.382;10.998;2022-11-06T14:52:14;15.80;99.90
26583;DHT22;14230;45.382;10.998;2022-11-06T14:55:02;15.70;99.90
26583;DHT22;14230;45.382;10.998;2022-11-06T14:57:51;15.70;99.90
26583;DHT22;14230;45.382;10.998;2022-11-06T15:00:48;15.70;99.90
26583;DHT22;14230;45.382;10.998;2022-11-06T15:03:27;15.70;99.90
26583;DHT22;14230;45.382;10.998;2022-11-06T15:06:06;15.60;99.90
26583;DHT22;14230;45.382;10.998;2022-11-06T15:16:38;15.40;99.90
26583;DHT22;14230;45.382;10.998;2022-11-06T15:19:13;15.30;99.90
26583;DHT22;14230;45.382;10.998;2022-11-06T15:24:45;15.10;99.90
26583;DHT22;14230;45.382;10.998;2022-11-06T15:27:17;14.90;99.90
26583;DHT22;14230;45.382;10.998;2022-11-06T15:29:50;14.90;99.90
26583;DHT22;14230;45.382;10.998;2022-11-06T15:32:30;14.70;99.90
26583;DHT22;14230;45.382;10.998;2022-11-06T15:35:17;14.70;99.90
26583;DHT22;14230;45.382;10.998;2022-11-06T15:37:49;14.60;99.90
26583;DHT22;14230;45.382;10.998;2022-11-06T15:40:28;14.50;99.90
26583;DHT22;14230;45.382;10.998;2022-11-06T15:43:05;14.50;99.90
26583;DHT22;14230;45.382;10.998;2022-11-06T15:45:32;14.40;99.90
26583;DHT22;14230;45.382;10.998;2022-11-06T15:48:02;14.20;99.90
26583;DHT22;14230;45.382;10.998;2022-11-06T15:50:35;14.20;99.90
26583;DHT22;14230;45.382;10.998;2022-11-06T15:58:32;13.90;99.90
26583;DHT22;14230;45.382;10.998;2022-11-06T16:01:02;13.80;99.90
26583;DHT22;14230;45.382;10.998;2022-11-06T16:03:53;13.70;99.90
26583;DHT22;14230;45.382;10.998;2022-11-06T16:06:19;13.70;99.90
26583;DHT22;14230;45.382;10.998;2022-11-06T16:08:49;13.70;99.90
26583;DHT22;14230;45.382;10.998;2022-11-06T16:11:18;13.60;99.90
26583;DHT22;14230;45.382;10.998;2022-11-06T16:13:46;13.50;99.90
26583;DHT22;14230;45.382;10.998;2022-11-06T16:16:39;13.50;99.90
26583;DHT22;14230;45.382;10.998;2022-11-06T16:19:21;13.40;99.90
26583;DHT22;14230;45.382;10.998;2022-11-06T16:22:00;13.30;99.90
26583;DHT22;14230;45.382;10.998;2022-11-06T16:24:32;13.30;99.90
26583;DHT22;14230;45.382;10.998;2022-11-06T16:27:04;13.30;99.90
26583;DHT22;14230;45.382;10.998;2022-11-06T16:29:32;13.20;99.90
26583;DHT22;14230;45.382;10.998;2022-11-06T16:32:08;13.20;99.90
26583;DHT22;14230;45.382;10.998;2022-11-06T16:34:43;13.20;99.90
26583;DHT22;14230;45.382;10.998;2022-11-06T16:39:48;12.90;99.90
26583;DHT22;14230;45.382;10.998;2022-11-06T16:45:15;13.00;99.90
26583;DHT22;14230;45.382;10.998;2022-11-06T16:50:48;12.90;99.90
26583;DHT22;14230;45.382;10.998;2022-11-06T16:53:28;12.90;99.90
26583;DHT22;14230;45.382;10.998;2022-11-06T16:55:59;12.90;99.90
26583;DHT22;14230;45.382;10.998;2022-11-06T16:58:33;12.80;99.90
26583;DHT22;14230;45.382;10.998;2022-11-06T17:01:07;12.80;99.90
26583;DHT22;14230;45.382;10.998;2022-11-06T17:03:46;12.80;99.90
26583;DHT22;14230;45.382;10.998;2022-11-06T17:06:30;12.70;99.90
26583;DHT22;14230;45.382;10.998;2022-11-06T17:11:35;12.30;99.90
26583;DHT22;14230;45.382;10.998;2022-11-06T17:14:13;12.20;99.90
26583;DHT22;14230;45.382;10.998;2022-11-06T17:16:57;12.10;99.90
26583;DHT22;14230;45.382;10.998;2022-11-06T17:19:25;12.10;99.90
26583;DHT22;14230;45.382;10.998;2022-11-06T17:21:53;12.10;99.90
26583;DHT22;14230;45.382;10.998;2022-11-06T17:24:20;12.00;99.90
26583;DHT22;14230;45.382;10.998;2022-11-06T17:27:05;12.10;99.90
26583;DHT22;14230;45.382;10.998;2022-11-06T17:29:33;12.00;99.90
26583;DHT22;14230;45.382;10.998;2022-11-06T17:32:05;11.90;99.90
26583;DHT22;14230;45.382;10.998;2022-11-06T17:34:32;11.90;99.90
26583;DHT22;14230;45.382;10.998;2022-11-06T17:37:00;11.80;99.90
26583;DHT22;14230;45.382;10.998;2022-11-06T17:39:27;11.80;99.90
26583;DHT22;14230;45.382;10.998;2022-11-06T17:41:54;11.80;99.90
26583;DHT22;14230;45.382;10.998;2022-11-06T17:44:22;11.80;99.90
26583;DHT22;14230;45.382;10.998;2022-11-06T17:46:49;11.70;99.90
26583;DHT22;14230;45.382;10.998;2022-11-06T17:49:17;11.70;99.90
26583;DHT22;14230;45.382;10.998;2022-11-06T17:51:46;11.70;99.90
26583;DHT22;14230;45.382;10.998;2022-11-06T17:54:21;11.70;99.90
26583;DHT22;14230;45.382;10.998;2022-11-06T17:56:49;11.70;99.90
26583;DHT22;14230;45.382;10.998;2022-11-06T17:59:18;11.70;99.90
26583;DHT22;14230;45.382;10.998;2022-11-06T18:01:46;11.70;99.90
26583;DHT22;14230;45.382;10.998;2022-11-06T18:04:14;11.60;99.90
26583;DHT22;14230;45.382;10.998;2022-11-06T18:06:46;11.70;99.90
26583;DHT22;14230;45.382;10.998;2022-11-06T18:09:14;11.70;99.90
26583;DHT22;14230;45.382;10.998;2022-11-06T18:11:42;11.70;99.90
26583;DHT22;14230;45.382;10.998;2022-11-06T18:14:10;11.70;99.90
26583;DHT22;14230;45.382;10.998;2022-11-06T18:16:39;11.80;99.90
26583;DHT22;14230;45.382;10.998;2022-11-06T18:19:12;11.70;99.90
26583;DHT22;14230;45.382;10.998;2022-11-06T18:21:40;11.70;99.90
26583;DHT22;14230;45.382;10.998;2022-11-06T18:24:07;11.70;99.90
26583;DHT22;14230;45.382;10.998;2022-11-06T18:26:35;11.70;99.90
26583;DHT22;14230;45.382;10.998;2022-11-06T18:29:07;11.70;99.90
26583;DHT22;14230;45.382;10.998;2022-11-06T18:31:34;11.80;99.90
26583;DHT22;14230;45.382;10.998;2022-11-06T18:34:03;11.70;99.90
26583;DHT22;14230;45.382;10.998;2022-11-06T18:36:32;11.70;99.90
26583;DHT22;14230;45.382;10.998;2022-11-06T18:39:02;11.70;99.90
26583;DHT22;14230;45.382;10.998;2022-11-06T18:41:30;11.70;99.90
26583;DHT22;14230;45.382;10.998;2022-11-06T18:43:58;11.70;99.90